Time;durP1;ratioP1;P1;durP2;ratioP2;P2;SDS_P1;SDS_P2;PMS_P1;PMS_P2;Temp;Humidity;BMP_temperature;BMP_pressure;BME280_temperature;BME280_humidity;BME280_pressure;Samples;Min_cycle;Max_cycle;Signal;HPM_P1;HPM_P2
2022/12/21 00:00:09;;;;;;;9.40;4.00;;;;;;;-0.84;74.47;100352.73;24535;1324;3056356;-62
2022/12/21 00:02:41;;;;;;;7.40;3.90;;;;;;;-0.57;72.25;100343.61;24510;1333;3025283;-67
2022/12/21 00:05:10;;;;;;;12.60;5.50;;;;;;;-0.27;70.98;100337.70;24495;1332;3028488;-65
2022/12/21 00:07:40;;;;;;;9.20;4.90;;;;;;;-0.54;71.61;100327.08;24487;1326;3055865;-66
2022/12/21 00:10:10;;;;;;;8.60;4.20;;;;;;;-0.55;71.53;100335.17;24499;1331;3025845;-72
2022/12/21 00:12:39;;;;;;;9.80;5.30;;;;;;;-0.89;71.83;100338.79;24534;1333;3050381;-67
2022/12/21 00:15:08;;;;;;;11.50;5.40;;;;;;;-1.13;72.95;100336.89;24496;1323;3028645;-63
2022/12/21 00:17:37;;;;;;;12.30;5.80;;;;;;;-1.22;73.52;100340.48;24517;1333;3069077;-62
2022/12/21 00:20:07;;;;;;;8.40;5.40;;;;;;;-1.38;74.18;100337.89;24489;1331;3030317;-66
2022/12/21 00:22:36;;;;;;;9.00;5.20;;;;;;;-1.30;74.31;100332.91;24475;1343;3049916;-68
2022/12/21 00:25:05;;;;;;;9.80;5.40;;;;;;;-1.50;74.77;100328.74;24549;1336;3027543;-65
2022/12/21 00:27:35;;;;;;;10.60;5.10;;;;;;;-1.51;75.35;100326.17;24513;1331;3052566;-65
2022/12/21 00:30:06;;;;;;;9.30;5.20;;;;;;;-1.42;75.12;100317.77;24503;1339;3029067;-61
2022/12/21 00:32:35;;;;;;;10.50;5.10;;;;;;;-1.44;75.28;100318.13;24470;1333;3026011;-62
2022/12/21 00:35:05;;;;;;;9.80;5.00;;;;;;;-1.52;75.73;100312.26;24552;1323;3028033;-64
2022/12/21 00:37:34;;;;;;;10.50;5.20;;;;;;;-1.57;75.92;100308.28;24472;1340;3050631;-62
2022/12/21 00:40:05;;;;;;;11.40;5.30;;;;;;;-1.52;76.01;100303.32;24453;1333;3027055;-62
2022/12/21 00:42:34;;;;;;;9.80;5.10;;;;;;;-1.46;75.81;100304.02;24512;1331;3026884;-62
2022/12/21 00:45:06;;;;;;;9.50;5.10;;;;;;;-1.48;75.82;100294.04;24485;1333;3028698;-62
2022/12/21 00:47:35;;;;;;;9.90;4.80;;;;;;;-1.42;75.76;100293.02;24507;1326;3026547;-64
2022/12/21 00:50:05;;;;;;;13.10;6.00;;;;;;;-1.50;75.98;100290.95;24550;1322;3026381;-61
2022/12/21 00:52:35;;;;;;;10.00;5.10;;;;;;;-1.55;76.41;100282.00;24506;1340;3055661;-65
2022/12/21 00:55:05;;;;;;;10.10;4.60;;;;;;;-1.36;75.64;100272.56;24489;1333;3028566;-64
2022/12/21 00:57:34;;;;;;;10.70;5.30;;;;;;;-1.32;75.33;100273.44;24521;1323;3026206;-64
2022/12/21 01:00:04;;;;;;;12.80;5.20;;;;;;;-1.36;75.61;100271.89;24501;1331;3028483;-67
2022/12/21 01:02:33;;;;;;;12.80;5.50;;;;;;;-1.53;76.31;100269.13;24482;1341;3052283;-64
2022/12/21 01:05:04;;;;;;;12.30;5.10;;;;;;;-1.49;76.64;100262.94;24486;1331;3028749;-64
2022/12/21 01:07:34;;;;;;;9.30;5.00;;;;;;;-1.40;76.13;100259.50;24507;1331;3025796;-67
2022/12/21 01:10:04;;;;;;;9.30;5.10;;;;;;;-1.46;76.56;100256.59;24486;1332;3026483;-64
2022/12/21 01:12:33;;;;;;;10.00;4.80;;;;;;;-1.54;76.85;100246.78;24545;1340;3027432;-66
2022/12/21 01:15:03;;;;;;;11.40;5.70;;;;;;;-1.38;76.66;100244.04;24490;1325;3028136;-65
2022/12/21 01:17:33;;;;;;;8.60;5.00;;;;;;;-1.50;77.18;100245.92;24596;1340;3026426;-66
2022/12/21 01:20:03;;;;;;;9.10;4.20;;;;;;;-1.37;76.80;100231.49;24459;1331;3028402;-63
2022/12/21 01:22:33;;;;;;;7.90;4.10;;;;;;;-0.98;75.99;100227.52;24512;1323;3025346;-62
2022/12/21 01:25:02;;;;;;;8.10;4.20;;;;;;;-0.34;73.51;100228.05;24531;1331;3028871;-61
2022/12/21 01:27:31;;;;;;;13.50;5.30;;;;;;;-0.15;72.56;100222.81;24483;1331;3056645;-61
2022/12/21 01:30:01;;;;;;;10.60;4.90;;;;;;;-0.32;72.74;100222.36;24519;1322;3028755;-69
2022/12/21 01:32:30;;;;;;;9.20;4.90;;;;;;;-0.49;73.19;100218.30;24499;1332;3050072;-67
2022/12/21 01:35:00;;;;;;;9.80;4.90;;;;;;;-0.81;74.22;100214.60;24481;1333;3028921;-66
2022/12/21 01:37:29;;;;;;;9.60;4.90;;;;;;;-0.79;74.46;100210.29;24484;1323;3026698;-64
2022/12/21 01:39:58;;;;;;;11.70;4.60;;;;;;;-0.78;74.26;100206.84;24546;1323;3028474;-65
2022/12/21 01:42:27;;;;;;;7.30;4.10;;;;;;;-0.84;74.47;100200.84;24513;1333;3056067;-65
2022/12/21 01:45:18;;;;;;;7.40;4.60;;;;;;;-0.84;74.51;100199.80;24546;1324;3026180;-66
2022/12/21 01:47:50;;;;;;;8.00;4.30;;;;;;;-1.12;75.63;100194.00;24527;1340;3050795;-67
2022/12/21 01:50:19;;;;;;;9.30;4.50;;;;;;;-1.15;75.79;100196.23;24488;1333;3026038;-62
2022/12/21 01:52:48;;;;;;;21.90;4.90;;;;;;;-1.15;76.44;100192.45;24517;1323;3028461;-61
2022/12/21 01:55:17;;;;;;;10.30;5.20;;;;;;;-1.10;76.47;100191.42;24471;1332;3049174;-64
2022/12/21 01:57:49;;;;;;;9.00;4.40;;;;;;;-1.19;76.55;100184.56;24546;1330;3026444;-65
2022/12/21 02:00:18;;;;;;;9.40;4.70;;;;;;;-1.16;76.44;100186.11;24416;1333;3028350;-63
2022/12/21 02:02:53;;;;;;;11.40;4.80;;;;;;;-1.21;77.29;100184.56;24447;1333;3050187;-66
2022/12/21 02:05:42;;;;;;;10.60;4.70;;;;;;;-1.22;77.38;100184.21;24474;1336;3056946;-63
2022/12/21 02:08:11;;;;;;;11.80;5.10;;;;;;;-1.34;77.91;100184.58;24462;1324;3052014;-62
2022/12/21 02:10:41;;;;;;;8.40;4.20;;;;;;;-1.32;78.05;100178.72;24464;1336;3027942;-60
2022/12/21 02:13:13;;;;;;;9.50;4.60;;;;;;;-1.27;78.16;100179.59;24414;1326;3029018;-61
2022/12/21 02:16:07;;;;;;;8.90;4.20;;;;;;;-1.11;77.63;100173.89;24533;1318;3050926;-67
2022/12/21 02:18:36;;;;;;;12.70;4.80;;;;;;;-1.12;77.57;100168.04;24485;1334;3055013;-64
2022/12/21 02:21:25;;;;;;;7.90;4.30;;;;;;;-1.26;78.22;100168.92;24454;1318;3027690;-67
2022/12/21 02:24:19;;;;;;;7.70;3.10;;;;;;;-1.24;78.78;100163.06;24476;1323;3052351;-62
2022/12/21 02:27:16;;;;;;;6.70;3.70;;;;;;;-0.56;77.34;100161.51;24397;1335;3053470;-64
2022/12/21 02:30:01;;;;;;;8.50;3.60;;;;;;;-0.14;75.10;100160.28;24464;1325;3052263;-64
2022/12/21 02:32:47;;;;;;;8.60;4.20;;;;;;;-0.23;75.14;100151.73;24496;1337;3054583;-63
2022/12/21 02:35:26;;;;;;;8.60;3.70;;;;;;;-0.42;76.01;100161.28;24454;1333;3049410;-63
2022/12/21 02:38:02;;;;;;;7.70;4.30;;;;;;;-0.60;77.16;100149.16;24471;1327;3069133;-64
2022/12/21 02:40:43;;;;;;;7.40;4.10;;;;;;;-0.56;77.21;100142.95;24468;1339;3050345;-61
2022/12/21 02:46:12;;;;;;;7.10;4.00;;;;;;;-0.80;78.56;100143.73;24511;1333;3051685;-64
2022/12/21 02:49:02;;;;;;;11.80;4.60;;;;;;;-0.79;78.87;100140.96;24518;1332;3053146;-72
2022/12/21 02:51:39;;;;;;;9.50;4.70;;;;;;;-0.92;79.77;100143.76;24467;1325;3051507;-67
2022/12/21 02:54:10;;;;;;;9.80;4.20;;;;;;;-1.01;80.25;100149.63;24433;1333;3053350;-71
2022/12/21 02:56:39;;;;;;;9.80;4.90;;;;;;;-1.01;80.58;100144.64;24415;1334;3026072;-66
2022/12/21 02:59:10;;;;;;;6.70;3.70;;;;;;;-0.97;81.10;100146.00;24495;1325;3029766;-69
2022/12/21 03:01:58;;;;;;;8.20;4.60;;;;;;;-0.90;80.44;100138.42;24538;1340;3028713;-63
2022/12/21 03:05:12;;;;;;;4.10;2.60;;;;;;;-0.84;80.93;100138.91;24476;1334;3057434;-63
2022/12/21 03:08:03;;;;;;;6.30;3.70;;;;;;;0.07;77.98;100126.90;24369;1340;3051834;-68
2022/12/21 03:10:47;;;;;;;7.60;3.90;;;;;;;0.35;76.37;100120.33;24520;1334;3053346;-65
2022/12/21 03:13:43;;;;;;;6.30;3.50;;;;;;;0.34;76.36;100110.34;24504;1316;3051683;-65
2022/12/21 03:16:24;;;;;;;8.70;4.40;;;;;;;0.06;76.69;100107.45;24574;1331;3053112;-66
2022/12/21 03:19:43;;;;;;;10.70;4.30;;;;;;;-0.35;78.41;100108.92;24568;1332;3049797;-65
2022/12/21 03:22:51;;;;;;;7.80;4.20;;;;;;;-0.61;80.14;100099.26;24449;1333;3069375;-64
2022/12/21 03:25:33;;;;;;;11.50;4.80;;;;;;;-0.60;80.32;100106.64;24502;1324;3050537;-60
2022/12/21 03:28:04;;;;;;;7.20;3.80;;;;;;;-0.69;80.83;100095.34;24491;1332;3056736;-68
2022/12/21 03:30:48;;;;;;;8.30;4.20;;;;;;;-0.84;81.83;100102.45;24499;1329;3026819;-62
2022/12/21 03:33:20;;;;;;;9.20;4.30;;;;;;;-0.91;82.46;100093.52;24499;1330;3053324;-67
2022/12/21 03:35:55;;;;;;;10.30;4.30;;;;;;;-1.08;83.35;100094.45;24545;1331;3026285;-61
2022/12/21 03:38:30;;;;;;;7.30;3.50;;;;;;;-1.03;84.12;100095.46;24558;1330;3052054;-67
2022/12/21 03:41:00;;;;;;;6.90;3.30;;;;;;;-0.53;82.46;100087.34;24525;1324;3048323;-66
2022/12/21 03:43:34;;;;;;;9.60;3.70;;;;;;;0.10;80.13;100078.49;24500;1324;3026346;-66
2022/12/21 03:46:12;;;;;;;7.10;3.40;;;;;;;0.21;79.13;100070.98;24485;1330;3050548;-68
2022/12/21 03:48:46;;;;;;;7.80;4.40;;;;;;;-0.23;80.16;100073.55;23866;1331;4407011;-63
2022/12/21 03:51:20;;;;;;;8.50;4.30;;;;;;;-0.41;80.95;100067.47;24503;1334;3052439;-62
2022/12/21 03:53:50;;;;;;;;;;;;;;;-0.23;80.30;100068.39;24538;1330;3053328;-64
2022/12/21 03:56:23;;;;;;;6.40;3.30;;;;;;;-0.66;82.02;100058.66;24531;1332;3028246;-67
2022/12/21 03:58:52;;;;;;;8.80;5.00;;;;;;;-0.84;83.41;100062.54;24485;1323;3028896;-66
2022/12/21 04:01:56;;;;;;;7.50;4.10;;;;;;;-0.83;84.02;100063.23;24470;1333;3028447;-60
2022/12/21 04:05:10;;;;;;;9.50;4.80;;;;;;;-0.83;84.20;100069.08;24517;1333;3053278;-64
2022/12/21 04:07:39;;;;;;;7.60;3.60;;;;;;;-0.41;83.48;100060.24;24504;1331;3052980;-61
2022/12/21 04:10:12;;;;;;;5.70;2.90;;;;;;;-0.09;81.89;100065.54;24479;1333;3028943;-64
2022/12/21 04:12:42;;;;;;;11.30;5.80;;;;;;;0.29;80.51;100061.61;24480;1333;3068469;-64
2022/12/21 04:16:02;;;;;;;10.50;5.80;;;;;;;0.69;78.97;100070.52;24526;1326;3028426;-68
2022/12/21 04:19:57;;;;;;;23.30;10.10;;;;;;;0.54;78.57;100074.30;24541;1324;3049606;-62
2022/12/21 04:21:04;;;;;;;26.30;10.60;;;;;;;0.10;79.78;100062.98;24452;1330;3068653;-68
2022/12/21 04:29:09;;;;;;;11.00;4.90;;;;;;;-0.32;82.10;100071.54;24504;1326;3051690;-67
2022/12/21 04:31:38;;;;;;;12.30;6.20;;;;;;;-0.51;82.84;100060.31;24484;1322;3028074;-68
2022/12/21 04:34:07;;;;;;;13.20;6.40;;;;;;;-0.33;82.66;100065.02;24459;1334;3057058;-65
2022/12/21 04:39:25;;;;;;;7.30;3.80;;;;;;;0.29;82.22;100063.33;24523;1334;3054735;-65
2022/12/21 04:41:54;;;;;;;8.60;3.90;;;;;;;0.55;79.98;100064.11;24443;1332;3028805;-66
2022/12/21 04:44:23;;;;;;;11.80;4.80;;;;;;;0.62;78.99;100061.11;24532;1332;3025871;-66
2022/12/21 04:46:52;;;;;;;8.60;4.40;;;;;;;0.36;79.99;100061.19;24467;1325;3052448;-58
2022/12/21 04:49:21;;;;;;;7.90;4.40;;;;;;;0.34;79.72;100060.54;24492;1326;3028732;-67
2022/12/21 04:51:50;;;;;;;8.10;4.20;;;;;;;0.10;80.63;100066.08;24456;1333;3051777;-62
2022/12/21 04:54:19;;;;;;;12.20;5.80;;;;;;;-0.05;81.31;100064.45;24527;1332;3028906;-70
2022/12/21 04:56:48;;;;;;;11.10;5.20;;;;;;;0.11;80.53;100065.04;24445;1337;3056688;-64
2022/12/21 04:59:17;;;;;;;10.40;5.30;;;;;;;-0.08;81.11;100071.38;24538;1337;3028419;-68
2022/12/21 05:01:46;;;;;;;14.80;7.50;;;;;;;0.00;80.73;100069.42;24470;1323;3049273;-65
2022/12/21 05:04:15;;;;;;;15.70;7.30;;;;;;;-0.34;82.30;100081.04;24571;1332;3026337;-64
2022/12/21 05:06:44;;;;;;;10.20;5.10;;;;;;;-0.19;82.64;100079.91;24563;1334;3027347;-62
2022/12/21 05:11:23;;;;;;;6.80;3.70;;;;;;;0.00;81.14;100077.35;30804;1330;3012857;-60
2022/12/21 05:13:53;;;;;;;9.20;4.30;;;;;;;0.49;80.39;100079.86;24428;1346;3028375;-63
2022/12/21 05:16:22;;;;;;;7.50;3.80;;;;;;;1.00;78.16;100075.36;24482;1343;3027246;-69
2022/12/21 05:18:52;;;;;;;6.20;3.80;;;;;;;1.07;77.33;100077.52;24437;1337;3026021;-62
2022/12/21 05:21:22;;;;;;;8.70;4.80;;;;;;;0.87;77.71;100079.83;24404;1336;3029521;-66
2022/12/21 05:23:52;;;;;;;11.40;6.10;;;;;;;0.45;78.91;100071.29;23746;1338;4410936;-63
2022/12/21 05:26:21;;;;;;;14.30;6.70;;;;;;;0.60;78.60;100055.62;24533;1330;3028421;-59
2022/12/21 05:28:50;;;;;;;12.90;5.90;;;;;;;0.29;79.62;100058.51;24444;1336;3051043;-62
2022/12/21 05:31:19;;;;;;;17.30;8.70;;;;;;;0.05;81.08;100046.81;24492;1339;3028386;-62
2022/12/21 05:33:48;;;;;;;13.70;7.10;;;;;;;0.09;80.78;100046.77;24464;1333;3056309;-67
2022/12/21 05:36:17;;;;;;;12.20;5.50;;;;;;;0.11;80.69;100047.48;24508;1335;3028759;-65
2022/12/21 05:38:46;;;;;;;17.70;7.40;;;;;;;0.28;79.48;100058.35;24476;1326;3028800;-69
2022/12/21 05:41:16;;;;;;;15.70;8.80;;;;;;;0.21;79.86;100065.13;24422;1333;3057131;-61
2022/12/21 05:43:45;;;;;;;10.20;5.40;;;;;;;0.06;80.42;100059.91;24573;1326;3026386;-66
2022/12/21 05:46:14;;;;;;;7.00;3.50;;;;;;;0.14;80.37;100060.37;24454;1319;3028684;-67
2022/12/21 05:48:43;;;;;;;6.10;3.40;;;;;;;0.62;79.84;100058.19;24507;1336;3055293;-67
2022/12/21 05:51:13;;;;;;;10.20;4.10;;;;;;;1.18;77.63;100049.94;24445;1325;3028115;-63
2022/12/21 05:53:43;;;;;;;9.20;4.80;;;;;;;1.04;77.50;100049.44;24421;1342;3049658;-66
2022/12/21 05:56:13;;;;;;;11.10;5.80;;;;;;;0.94;77.19;100046.09;24476;1340;3025804;-67
2022/12/21 05:58:42;;;;;;;17.80;7.70;;;;;;;0.56;78.41;100046.69;24468;1336;3026669;-64
2022/12/21 06:01:11;;;;;;;12.60;6.20;;;;;;;0.37;79.71;100036.54;24519;1343;3050442;-65
2022/12/21 06:03:40;;;;;;;11.10;6.10;;;;;;;0.50;79.40;100039.00;24520;1326;3028380;-68
2022/12/21 06:06:11;;;;;;;12.90;6.00;;;;;;;0.36;79.68;100042.77;24472;1326;3068546;-60
2022/12/21 06:08:42;;;;;;;11.30;5.00;;;;;;;0.15;80.38;100038.64;24531;1337;3026338;-64
2022/12/21 06:11:12;;;;;;;10.80;5.90;;;;;;;0.08;81.03;100038.87;24540;1334;3028949;-65
2022/12/21 06:13:43;;;;;;;13.90;6.30;;;;;;;0.04;81.86;100040.45;24494;1334;3068648;-63
2022/12/21 06:16:15;;;;;;;19.20;7.40;;;;;;;0.03;81.97;100052.18;24490;1334;3027927;-65
2022/12/21 06:18:44;;;;;;;15.70;7.60;;;;;;;0.10;81.54;100054.20;24472;1333;3026394;-63
2022/12/21 06:21:13;;;;;;;15.70;6.00;;;;;;;0.18;80.97;100056.88;24462;1327;3026795;-66
2022/12/21 06:23:43;;;;;;;12.90;6.20;;;;;;;0.64;80.80;100064.73;24456;1342;3049546;-65
2022/12/21 06:26:14;;;;;;;15.20;6.50;;;;;;;1.16;79.26;100054.80;24427;1325;3026381;-65
2022/12/21 06:28:48;;;;;;;16.10;7.90;;;;;;;0.96;78.65;100061.08;24484;1326;3068373;-66
2022/12/21 06:31:18;;;;;;;21.50;8.50;;;;;;;1.00;78.97;100055.87;24511;1333;3049466;-65
2022/12/21 06:33:47;;;;;;;11.60;6.70;;;;;;;0.89;79.18;100063.77;24515;1326;3025810;-67
2022/12/21 06:36:16;;;;;;;13.80;7.80;;;;;;;0.98;78.51;100072.80;24444;1333;3028600;-65
2022/12/21 06:38:45;;;;;;;17.90;8.30;;;;;;;1.13;77.92;100090.21;24508;1339;3049381;-63
2022/12/21 06:41:16;;;;;;;11.70;5.90;;;;;;;0.98;77.92;100105.92;24469;1331;3028251;-69
2022/12/21 06:43:45;;;;;;;13.70;5.80;;;;;;;0.77;79.43;100115.27;24494;1333;3027822;-64
2022/12/21 06:46:15;;;;;;;10.50;6.00;;;;;;;0.83;79.50;100115.55;24462;1340;3028044;-66
2022/12/21 06:48:45;;;;;;;11.80;5.30;;;;;;;0.84;79.35;100109.34;24486;1332;3025933;-68
2022/12/21 06:51:16;;;;;;;13.20;6.30;;;;;;;0.85;79.20;100103.81;24452;1333;3028578;-67
2022/12/21 06:53:46;;;;;;;12.00;6.30;;;;;;;0.61;80.15;100100.43;24495;1335;3028629;-67
2022/12/21 06:56:26;;;;;;;11.20;6.70;;;;;;;0.55;81.20;100091.52;24498;1326;3027989;-66
2022/12/21 06:58:55;;;;;;;8.10;3.70;;;;;;;0.59;81.19;100103.73;24495;1333;3050456;-63
2022/12/21 07:01:25;;;;;;;7.70;4.10;;;;;;;1.05;79.77;100105.14;24461;1334;3025683;-65
2022/12/21 07:03:54;;;;;;;7.70;3.90;;;;;;;1.74;77.20;100097.20;24549;1326;3069018;-62
2022/12/21 07:06:24;;;;;;;10.80;5.20;;;;;;;1.91;76.33;100098.34;24500;1332;3024920;-61
2022/12/21 07:08:54;;;;;;;10.30;4.90;;;;;;;1.65;76.65;100104.58;24467;1333;3051965;-64
2022/12/21 07:11:25;;;;;;;12.20;5.50;;;;;;;1.50;76.96;100101.66;24550;1325;3027088;-62
2022/12/21 07:13:54;;;;;;;11.70;6.60;;;;;;;1.25;77.90;100100.42;24494;1332;3027502;-62
2022/12/21 07:16:23;;;;;;;11.30;5.40;;;;;;;1.01;79.26;100097.42;24495;1332;3026535;-67
2022/12/21 07:18:53;;;;;;;9.70;4.80;;;;;;;1.11;78.82;100098.19;24474;1328;3068435;-64
2022/12/21 07:21:22;;;;;;;11.60;5.30;;;;;;;1.12;78.74;100099.38;24439;1341;3028543;-63
2022/12/21 07:23:51;;;;;;;10.50;5.20;;;;;;;0.92;79.35;100093.41;24547;1333;3026538;-64
2022/12/21 07:26:21;;;;;;;10.20;5.10;;;;;;;0.96;79.13;100094.73;24480;1326;3068636;-67
2022/12/21 07:28:50;;;;;;;12.40;5.40;;;;;;;0.82;79.86;100096.43;24585;1334;3026502;-65
2022/12/21 07:31:21;;;;;;;10.00;5.60;;;;;;;0.65;80.76;100094.20;24592;1332;3028734;-65
2022/12/21 07:33:51;;;;;;;11.60;5.70;;;;;;;0.54;81.70;100092.91;24505;1342;3069066;-66
2022/12/21 07:36:20;;;;;;;7.30;4.30;;;;;;;0.55;82.20;100097.05;24516;1326;3028700;-62
2022/12/21 07:38:50;;;;;;;8.00;4.20;;;;;;;1.20;80.59;100093.91;24460;1343;3028066;-65
2022/12/21 07:41:19;;;;;;;10.30;4.80;;;;;;;1.62;78.35;100100.46;24593;1325;3026387;-64
2022/12/21 07:43:48;;;;;;;13.40;6.90;;;;;;;2.23;76.32;100095.92;24526;1342;3049287;-67
2022/12/21 07:46:36;;;;;;;10.30;6.00;;;;;;;1.36;77.92;100100.63;24488;1332;3057182;-66
2022/12/21 07:49:09;;;;;;;10.70;5.90;;;;;;;1.15;79.34;100088.81;24510;1332;3028987;-65
2022/12/21 07:51:39;;;;;;;10.90;5.50;;;;;;;1.21;79.04;100082.00;24527;1324;3028366;-71
2022/12/21 07:54:08;;;;;;;12.00;5.30;;;;;;;1.12;79.26;100082.30;24468;1343;3057265;-69
2022/12/21 07:56:37;;;;;;;10.00;5.50;;;;;;;1.29;78.98;100084.66;24506;1326;3028173;-67
2022/12/21 07:59:06;;;;;;;10.70;5.50;;;;;;;1.24;79.12;100091.47;24540;1337;3048784;-65
2022/12/21 08:01:35;;;;;;;11.20;5.90;;;;;;;1.42;78.12;100093.82;24538;1327;3028021;-74
2022/12/21 08:04:06;;;;;;;15.40;6.50;;;;;;;1.16;79.36;100097.77;24458;1326;3068234;-68
2022/12/21 08:06:35;;;;;;;12.40;6.30;;;;;;;1.31;79.14;100086.72;24495;1326;3026634;-67
2022/12/21 08:09:05;;;;;;;15.20;7.10;;;;;;;1.45;77.98;100086.89;24530;1326;3028020;-65
2022/12/21 08:11:33;;;;;;;12.90;6.40;;;;;;;1.29;79.02;100076.56;24458;1332;3068069;-67
2022/12/21 08:14:02;;;;;;;12.50;6.20;;;;;;;1.30;79.22;100076.55;24511;1334;3028702;-63
2022/12/21 08:16:31;;;;;;;15.10;7.20;;;;;;;1.20;79.50;100076.68;24431;1334;3048706;-70
2022/12/21 08:19:01;;;;;;;9.30;4.50;;;;;;;1.33;79.55;100080.65;24562;1333;3026617;-68
2022/12/21 08:21:30;;;;;;;8.90;4.90;;;;;;;1.93;78.13;100074.10;24506;1334;3052021;-71
2022/12/21 08:23:59;;;;;;;7.30;4.80;;;;;;;2.44;75.88;100071.54;24460;1326;3028650;-64
2022/12/21 08:26:28;;;;;;;11.50;5.50;;;;;;;2.81;74.81;100065.50;24434;1333;3050037;-65
2022/12/21 08:28:58;;;;;;;13.30;6.00;;;;;;;2.54;74.24;100066.17;25415;1333;3026576;-72
2022/12/21 08:31:27;;;;;;;10.50;6.20;;;;;;;2.34;75.71;100069.80;25431;1326;3052126;-63
2022/12/21 08:33:56;;;;;;;15.90;7.20;;;;;;;2.08;76.34;100059.18;25412;1336;3026223;-64
2022/12/21 08:36:27;;;;;;;11.80;7.00;;;;;;;1.81;77.10;100061.50;25440;1326;3051364;-62
2022/12/21 08:38:57;;;;;;;11.40;6.30;;;;;;;1.66;77.70;100076.77;25421;1333;3026579;-68
2022/12/21 08:41:25;;;;;;;14.10;6.80;;;;;;;1.68;77.99;100068.26;25413;1327;3026476;-69
2022/12/21 08:43:57;;;;;;;14.50;7.20;;;;;;;1.52;78.76;100064.17;25422;1334;3026161;-67
2022/12/21 08:46:26;;;;;;;13.30;6.20;;;;;;;1.45;79.06;100067.90;25434;1334;3026404;-69
2022/12/21 08:48:55;;;;;;;13.00;6.70;;;;;;;1.57;78.92;100058.06;25432;1333;3050088;-62
2022/12/21 08:51:25;;;;;;;14.30;7.80;;;;;;;1.67;77.72;100063.10;25443;1333;3025863;-63
2022/12/21 08:53:54;;;;;;;14.80;7.40;;;;;;;1.59;78.54;100054.58;25425;1327;3026226;-71
2022/12/21 08:56:23;;;;;;;14.00;6.70;;;;;;;1.55;79.28;100048.58;25420;1327;3050731;-67
2022/12/21 08:58:53;;;;;;;13.30;5.90;;;;;;;1.39;79.68;100039.13;25429;1332;3026330;-62
2022/12/21 09:01:22;;;;;;;13.90;6.40;;;;;;;1.33;79.68;100044.59;25425;1333;3026264;-61
2022/12/21 09:03:52;;;;;;;9.40;5.20;;;;;;;1.16;80.27;100046.35;25427;1331;3049115;-68
2022/12/21 09:06:20;;;;;;;11.40;5.60;;;;;;;1.60;79.72;100033.30;25429;1333;3026470;-69
2022/12/21 09:08:49;;;;;;;12.20;6.00;;;;;;;2.50;76.47;100032.19;25432;1333;3051713;-68
2022/12/21 09:11:19;;;;;;;15.00;7.10;;;;;;;2.80;74.42;100031.62;25395;1333;3025939;-69
2022/12/21 09:13:48;;;;;;;14.70;5.90;;;;;;;2.32;75.30;100046.67;25445;1332;3051624;-64
2022/12/21 09:16:19;;;;;;;11.50;5.90;;;;;;;2.16;75.68;100037.79;25432;1339;3026602;-67
2022/12/21 09:18:48;;;;;;;11.50;6.40;;;;;;;1.94;76.61;100040.23;25417;1333;3056580;-68
2022/12/21 09:21:19;;;;;;;13.20;5.90;;;;;;;2.12;76.07;100050.98;25444;1327;3026390;-67
2022/12/21 09:23:48;;;;;;;14.70;6.80;;;;;;;2.04;76.31;100043.34;25434;1325;3025854;-63
2022/12/21 09:26:17;;;;;;;12.00;6.10;;;;;;;2.09;76.40;100041.20;25417;1334;3025953;-65
2022/12/21 09:28:46;;;;;;;12.00;6.30;;;;;;;2.17;75.87;100039.15;25434;1327;3051361;-67
2022/12/21 09:31:17;;;;;;;15.50;6.10;;;;;;;2.03;75.82;100042.14;25444;1325;3025752;-66
2022/12/21 09:33:45;;;;;;;14.40;6.70;;;;;;;1.96;76.70;100033.45;25428;1333;3058023;-65
2022/12/21 09:36:15;;;;;;;18.20;8.60;;;;;;;2.02;76.50;100037.84;25433;1327;3026086;-66
2022/12/21 09:38:44;;;;;;;17.00;7.60;;;;;;;2.09;76.00;100031.52;25435;1333;3050092;-64
2022/12/21 09:41:28;;;;;;;14.30;7.00;;;;;;;2.04;76.39;100028.83;25428;1333;3025713;-66
2022/12/21 09:44:06;;;;;;;12.70;6.40;;;;;;;1.73;77.47;100021.73;25430;1333;3068777;-68
2022/12/21 09:46:35;;;;;;;11.40;5.80;;;;;;;1.73;77.38;100019.64;25422;1334;3051144;-74
2022/12/21 09:49:06;;;;;;;9.30;5.70;;;;;;;1.75;77.61;100017.73;25350;1333;3026763;-68
2022/12/21 09:51:35;;;;;;;11.60;6.30;;;;;;;1.78;77.56;100004.20;25388;1328;3068984;-62
2022/12/21 09:54:04;;;;;;;12.90;6.70;;;;;;;1.72;77.53;99995.14;25413;1326;3025716;-70
2022/12/21 09:56:39;;;;;;;11.50;5.90;;;;;;;1.71;78.26;99986.17;25430;1333;3048488;-65
2022/12/21 09:59:11;;;;;;;11.50;5.70;;;;;;;1.74;77.78;100000.64;25376;1336;3069049;-63
2022/12/21 10:02:00;;;;;;;12.40;5.60;;;;;;;1.66;77.87;99997.14;25349;1335;3025940;-73
2022/12/21 10:04:45;;;;;;;8.70;4.20;;;;;;;1.76;77.74;99993.19;25379;1333;3056392;-68
2022/12/21 10:07:35;;;;;;;9.00;4.40;;;;;;;2.30;76.58;99986.73;25427;1326;3051601;-69
2022/12/21 10:10:39;;;;;;;9.20;4.90;;;;;;;3.24;73.73;99978.23;25417;1333;3052918;-66
2022/12/21 10:13:30;;;;;;;15.50;5.80;;;;;;;3.26;71.61;99979.75;25411;1333;3050860;-70
2022/12/21 10:16:27;;;;;;;12.40;5.30;;;;;;;2.98;71.81;99987.14;25435;1333;3052622;-66
2022/12/21 10:19:23;;;;;;;14.00;6.40;;;;;;;2.93;71.67;100004.70;25424;1333;3049404;-68
2022/12/21 10:22:07;;;;;;;14.50;6.40;;;;;;;3.12;70.91;100003.27;25314;1339;3068745;-71
2022/12/21 10:24:42;;;;;;;14.60;6.40;;;;;;;3.13;70.74;100002.21;25414;1325;3050488;-65
2022/12/21 10:27:19;;;;;;;12.50;6.20;;;;;;;3.03;71.16;100018.36;25388;1337;3056024;-70
2022/12/21 10:29:51;;;;;;;12.80;7.40;;;;;;;3.08;70.90;100022.92;25379;1334;3051505;-67
2022/12/21 10:32:20;;;;;;;19.30;8.60;;;;;;;3.00;70.70;100027.06;25384;1327;3026233;-68
2022/12/21 10:34:49;;;;;;;16.90;8.10;;;;;;;3.17;70.39;100018.40;25394;1327;3026397;-69
2022/12/21 10:37:19;;;;;;;13.10;7.30;;;;;;;3.08;69.60;100021.55;25391;1336;3050765;-66
2022/12/21 10:39:57;;;;;;;15.60;7.10;;;;;;;2.75;70.92;100013.71;25429;1334;3027038;-69
2022/12/21 10:42:31;;;;;;;9.60;4.90;;;;;;;2.85;70.66;100014.22;25396;1333;3051939;-68
2022/12/21 10:45:00;;;;;;;17.00;6.30;;;;;;;3.11;69.87;99997.06;25366;1333;3053430;-68
2022/12/21 10:47:28;;;;;;;11.60;5.50;;;;;;;2.88;70.17;99996.86;25425;1327;3026165;-72
2022/12/21 10:50:02;;;;;;;12.00;5.30;;;;;;;2.56;71.14;99992.30;25410;1327;3050963;-68
2022/12/21 10:52:41;;;;;;;17.80;6.00;;;;;;;2.65;71.28;99987.46;25415;1340;3051890;-70
2022/12/21 10:55:19;;;;;;;11.00;5.60;;;;;;;2.37;72.58;99982.97;25416;1322;3049268;-69
2022/12/21 10:58:00;;;;;;;13.90;6.00;;;;;;;2.51;72.05;99980.10;25411;1333;3068960;-66
2022/12/21 11:00:52;;;;;;;13.40;6.30;;;;;;;2.60;71.82;99974.05;25426;1327;3048940;-68
2022/12/21 11:03:26;;;;;;;12.60;5.80;;;;;;;2.76;71.50;99965.45;25394;1334;3056505;-66
2022/12/21 11:05:55;;;;;;;10.60;5.60;;;;;;;2.61;71.61;99964.34;25430;1335;3050989;-70
2022/12/21 14:12:53;;;;;;;10.70;3.90;;;;;;;1.41;83.24;99914.66;30742;1330;3015042;-67
2022/12/21 14:15:22;;;;;;;12.20;4.80;;;;;;;2.26;80.74;99920.59;24487;1330;3069518;-67
2022/12/21 14:17:51;;;;;;;11.20;5.70;;;;;;;2.83;77.95;99914.76;24486;1334;3028663;-67
2022/12/21 14:20:32;;;;;;;13.00;6.10;;;;;;;2.98;77.21;99921.19;24594;1344;3048559;-67
2022/12/21 14:23:02;;;;;;;12.00;5.80;;;;;;;2.93;76.56;99923.73;24473;1333;3069951;-67
2022/12/21 14:25:36;;;;;;;12.70;5.50;;;;;;;2.87;76.85;99930.77;23829;1340;4427159;-66
2022/12/21 14:28:27;;;;;;;14.90;7.40;;;;;;;2.57;77.75;99926.72;24516;1344;3049403;-67
2022/12/21 14:30:59;;;;;;;13.80;7.30;;;;;;;2.48;77.90;99919.47;24532;1324;3069061;-69
2022/12/21 14:33:49;;;;;;;13.20;6.30;;;;;;;2.20;79.07;99925.38;24540;1339;3026115;-69
2022/12/21 14:36:18;;;;;;;14.50;6.80;;;;;;;2.16;79.42;99930.63;24514;1324;3056285;-68
2022/12/21 14:38:59;;;;;;;13.70;7.10;;;;;;;2.11;79.76;99925.55;24696;1335;3026740;-67
2022/12/21 14:41:41;;;;;;;22.70;7.90;;;;;;;2.04;80.05;99929.30;24570;1330;3050505;-75
2022/12/21 14:44:14;;;;;;;14.10;5.00;;;;;;;1.95;80.78;99923.08;24633;1340;3057114;-70
2022/12/21 14:47:02;;;;;;;11.40;4.90;;;;;;;2.71;78.70;99917.98;24625;1335;3026193;-71
2022/12/21 14:49:35;;;;;;;19.30;7.40;;;;;;;3.37;75.92;99915.79;24629;1335;3052847;-69
2022/12/21 14:52:28;;;;;;;19.20;8.10;;;;;;;3.48;74.83;99918.14;24617;1337;3050632;-69
2022/12/21 14:54:57;;;;;;;14.40;7.60;;;;;;;3.14;75.22;99917.89;24593;1332;3052929;-69